sensor_id;sensor_type;location;lat;lon;timestamp;pressure;altitude;pressure_sealevel;temperature;humidity
32131;BME280;18639;50.716;7.086;2024-03-07T00:01:22;101222.09;;;5.33;100.00
32131;BME280;18639;50.716;7.086;2024-03-07T00:03:48;101241.38;;;5.45;100.00
32131;BME280;18639;50.716;7.086;2024-03-07T00:06:13;101213.88;;;5.22;100.00
32131;BME280;18639;50.716;7.086;2024-03-07T00:08:38;101249.19;;;5.40;100.00
32131;BME280;18639;50.716;7.086;2024-03-07T00:11:03;101251.00;;;5.38;100.00
32131;BME280;18639;50.716;7.086;2024-03-07T00:13:29;101228.53;;;5.17;100.00
32131;BME280;18639;50.716;7.086;2024-03-07T00:15:54;101230.13;;;5.21;100.00
32131;BME280;18639;50.716;7.086;2024-03-07T00:18:19;101246.09;;;5.29;100.00
32131;BME280;18639;50.716;7.086;2024-03-07T00:20:45;101247.84;;;5.29;100.00
32131;BME280;18639;50.716;7.086;2024-03-07T00:23:10;101228.66;;;5.13;100.00
32131;BME280;18639;50.716;7.086;2024-03-07T00:25:36;101227.13;;;5.07;100.00
32131;BME280;18639;50.716;7.086;2024-03-07T00:28:01;101257.38;;;5.24;100.00
32131;BME280;18639;50.716;7.086;2024-03-07T00:30:29;101241.34;;;5.17;100.00
32131;BME280;18639;50.716;7.086;2024-03-07T00:32:55;101237.16;;;5.13;100.00
32131;BME280;18639;50.716;7.086;2024-03-07T00:35:21;101172.69;;;4.68;100.00
32131;BME280;18639;50.716;7.086;2024-03-07T00:37:47;101249.91;;;5.16;100.00
32131;BME280;18639;50.716;7.086;2024-03-07T00:40:12;101210.50;;;4.91;100.00
32131;BME280;18639;50.716;7.086;2024-03-07T00:42:38;101218.75;;;5.00;100.00
32131;BME280;18639;50.716;7.086;2024-03-07T00:45:04;101241.56;;;5.08;100.00
32131;BME280;18639;50.716;7.086;2024-03-07T00:47:30;101242.53;;;5.05;100.00
32131;BME280;18639;50.716;7.086;2024-03-07T00:49:57;101205.56;;;4.83;100.00
32131;BME280;18639;50.716;7.086;2024-03-07T00:52:22;101233.41;;;4.95;100.00
32131;BME280;18639;50.716;7.086;2024-03-07T00:54:47;101233.53;;;4.91;100.00
32131;BME280;18639;50.716;7.086;2024-03-07T00:57:13;101225.13;;;4.86;100.00
32131;BME280;18639;50.716;7.086;2024-03-07T00:59:39;101236.16;;;4.88;100.00
32131;BME280;18639;50.716;7.086;2024-03-07T01:02:04;101231.31;;;4.77;100.00
32131;BME280;18639;50.716;7.086;2024-03-07T01:04:29;101228.88;;;4.74;100.00
32131;BME280;18639;50.716;7.086;2024-03-07T01:06:59;101237.28;;;4.78;100.00
32131;BME280;18639;50.716;7.086;2024-03-07T01:09:25;101235.69;;;4.74;100.00
32131;BME280;18639;50.716;7.086;2024-03-07T01:11:53;101219.09;;;4.56;100.00
32131;BME280;18639;50.716;7.086;2024-03-07T01:14:18;101215.81;;;4.51;100.00
32131;BME280;18639;50.716;7.086;2024-03-07T01:16:43;101230.88;;;4.61;100.00
32131;BME280;18639;50.716;7.086;2024-03-07T01:19:09;101236.00;;;4.61;100.00
32131;BME280;18639;50.716;7.086;2024-03-07T01:21:34;101216.63;;;4.53;100.00
32131;BME280;18639;50.716;7.086;2024-03-07T01:24:01;101228.31;;;4.63;100.00
32131;BME280;18639;50.716;7.086;2024-03-07T01:26:30;101223.31;;;4.58;100.00
32131;BME280;18639;50.716;7.086;2024-03-07T01:28:56;101211.66;;;4.47;100.00
32131;BME280;18639;50.716;7.086;2024-03-07T01:31:23;101216.66;;;4.51;100.00
32131;BME280;18639;50.716;7.086;2024-03-07T01:33:49;101221.75;;;4.53;100.00
32131;BME280;18639;50.716;7.086;2024-03-07T01:36:14;101204.25;;;4.36;100.00
32131;BME280;18639;50.716;7.086;2024-03-07T01:38:39;101214.34;;;4.42;100.00
32131;BME280;18639;50.716;7.086;2024-03-07T01:41:05;101215.34;;;4.35;100.00
32131;BME280;18639;50.716;7.086;2024-03-07T01:43:30;101214.50;;;4.36;100.00
32131;BME280;18639;50.716;7.086;2024-03-07T01:45:56;101212.81;;;4.35;100.00
32131;BME280;18639;50.716;7.086;2024-03-07T01:48:27;101192.72;;;4.20;100.00
32131;BME280;18639;50.716;7.086;2024-03-07T01:50:59;101215.31;;;4.37;100.00
32131;BME280;18639;50.716;7.086;2024-03-07T01:53:27;101206.16;;;4.28;100.00
32131;BME280;18639;50.716;7.086;2024-03-07T01:55:52;101181.69;;;4.18;100.00
32131;BME280;18639;50.716;7.086;2024-03-07T01:58:21;101183.38;;;4.17;100.00
32131;BME280;18639;50.716;7.086;2024-03-07T02:00:47;101188.31;;;4.27;100.00
32131;BME280;18639;50.716;7.086;2024-03-07T02:03:13;101190.16;;;4.20;100.00
32131;BME280;18639;50.716;7.086;2024-03-07T02:05:42;101185.91;;;4.19;100.00
32131;BME280;18639;50.716;7.086;2024-03-07T02:08:07;101192.56;;;4.26;100.00
32131;BME280;18639;50.716;7.086;2024-03-07T02:10:32;101202.03;;;4.22;100.00
32131;BME280;18639;50.716;7.086;2024-03-07T02:12:58;101187.75;;;4.14;100.00
32131;BME280;18639;50.716;7.086;2024-03-07T02:15:23;101168.31;;;4.07;100.00
32131;BME280;18639;50.716;7.086;2024-03-07T02:17:49;101178.50;;;4.08;100.00
32131;BME280;18639;50.716;7.086;2024-03-07T02:20:14;101183.59;;;4.10;100.00
32131;BME280;18639;50.716;7.086;2024-03-07T02:22:41;101185.28;;;4.11;100.00
32131;BME280;18639;50.716;7.086;2024-03-07T02:25:06;101189.44;;;4.15;100.00
32131;BME280;18639;50.716;7.086;2024-03-07T02:27:32;101174.34;;;4.04;100.00
32131;BME280;18639;50.716;7.086;2024-03-07T02:29:57;101164.31;;;3.97;100.00
32131;BME280;18639;50.716;7.086;2024-03-07T02:32:22;101185.47;;;4.03;100.00
32131;BME280;18639;50.716;7.086;2024-03-07T02:34:48;101159.34;;;3.91;100.00
32131;BME280;18639;50.716;7.086;2024-03-07T02:37:13;101179.53;;;4.01;100.00
32131;BME280;18639;50.716;7.086;2024-03-07T02:39:39;101181.25;;;4.01;100.00
32131;BME280;18639;50.716;7.086;2024-03-07T02:42:04;101164.50;;;3.89;100.00
32131;BME280;18639;50.716;7.086;2024-03-07T02:44:30;101177.06;;;3.98;100.00
32131;BME280;18639;50.716;7.086;2024-03-07T02:46:57;101114.34;;;3.48;100.00
32131;BME280;18639;50.716;7.086;2024-03-07T02:49:22;101176.31;;;3.95;100.00
32131;BME280;18639;50.716;7.086;2024-03-07T02:51:48;101176.38;;;3.90;100.00
32131;BME280;18639;50.716;7.086;2024-03-07T02:54:13;101181.44;;;3.93;100.00
32131;BME280;18639;50.716;7.086;2024-03-07T02:56:39;101144.50;;;3.69;100.00
32131;BME280;18639;50.716;7.086;2024-03-07T02:59:04;101183.25;;;3.90;100.00
32131;BME280;18639;50.716;7.086;2024-03-07T03:01:29;101179.00;;;3.89;100.00
32131;BME280;18639;50.716;7.086;2024-03-07T03:03:54;101152.91;;;3.74;100.00
32131;BME280;18639;50.716;7.086;2024-03-07T03:06:20;101168.06;;;3.82;100.00
32131;BME280;18639;50.716;7.086;2024-03-07T03:08:48;101163.00;;;3.80;100.00
32131;BME280;18639;50.716;7.086;2024-03-07T03:11:14;101152.06;;;3.74;100.00
32131;BME280;18639;50.716;7.086;2024-03-07T03:13:43;101152.00;;;3.77;100.00
32131;BME280;18639;50.716;7.086;2024-03-07T03:16:08;101152.00;;;3.77;100.00
32131;BME280;18639;50.716;7.086;2024-03-07T03:18:35;101163.72;;;3.86;100.00
32131;BME280;18639;50.716;7.086;2024-03-07T03:21:01;101164.63;;;3.85;100.00
32131;BME280;18639;50.716;7.086;2024-03-07T03:23:27;101149.47;;;3.75;100.00
32131;BME280;18639;50.716;7.086;2024-03-07T03:25:52;101141.94;;;3.69;100.00
32131;BME280;18639;50.716;7.086;2024-03-07T03:28:19;101155.31;;;3.80;100.00
32131;BME280;18639;50.716;7.086;2024-03-07T03:30:44;101154.53;;;3.78;100.00
32131;BME280;18639;50.716;7.086;2024-03-07T03:33:10;101146.06;;;3.76;100.00
32131;BME280;18639;50.716;7.086;2024-03-07T03:35:36;101138.53;;;3.70;100.00
32131;BME280;18639;50.716;7.086;2024-03-07T03:38:02;101161.47;;;3.73;100.00
32131;BME280;18639;50.716;7.086;2024-03-07T03:40:28;101144.59;;;3.66;100.00
32131;BME280;18639;50.716;7.086;2024-03-07T03:42:53;101149.75;;;3.63;100.00
32131;BME280;18639;50.716;7.086;2024-03-07T03:45:19;101150.53;;;3.67;100.00
32131;BME280;18639;50.716;7.086;2024-03-07T03:47:44;101139.72;;;3.57;100.00
32131;BME280;18639;50.716;7.086;2024-03-07T03:50:12;101136.41;;;3.52;100.00
32131;BME280;18639;50.716;7.086;2024-03-07T03:52:38;101139.72;;;3.57;100.00
32131;BME280;18639;50.716;7.086;2024-03-07T03:55:05;101146.47;;;3.58;100.00
32131;BME280;18639;50.716;7.086;2024-03-07T03:57:48;101146.56;;;3.55;100.00
32131;BME280;18639;50.716;7.086;2024-03-07T04:00:14;101157.53;;;3.59;100.00
32131;BME280;18639;50.716;7.086;2024-03-07T04:02:44;101148.16;;;3.59;100.00
32131;BME280;18639;50.716;7.086;2024-03-07T04:05:13;101118.72;;;3.43;100.00
32131;BME280;18639;50.716;7.086;2024-03-07T04:07:39;101128.78;;;3.51;100.00
32131;BME280;18639;50.716;7.086;2024-03-07T04:10:05;101141.16;;;3.67;100.00
32131;BME280;18639;50.716;7.086;2024-03-07T04:12:33;101125.03;;;3.64;100.00
32131;BME280;18639;50.716;7.086;2024-03-07T04:14:59;101130.13;;;3.65;100.00
32131;BME280;18639;50.716;7.086;2024-03-07T04:17:24;101135.00;;;3.74;100.00
32131;BME280;18639;50.716;7.086;2024-03-07T04:19:50;101122.41;;;3.68;100.00
32131;BME280;18639;50.716;7.086;2024-03-07T04:22:16;101124.84;;;3.73;100.00
32131;BME280;18639;50.716;7.086;2024-03-07T04:24:44;101122.19;;;3.77;100.00
32131;BME280;18639;50.716;7.086;2024-03-07T04:27:09;101126.34;;;3.81;100.00
32131;BME280;18639;50.716;7.086;2024-03-07T04:29:35;101127.19;;;3.82;100.00
32131;BME280;18639;50.716;7.086;2024-03-07T04:32:01;101138.22;;;3.84;100.00
32131;BME280;18639;50.716;7.086;2024-03-07T04:34:27;101121.34;;;3.77;100.00
32131;BME280;18639;50.716;7.086;2024-03-07T04:36:59;101127.06;;;3.87;100.00
32131;BME280;18639;50.716;7.086;2024-03-07T04:39:29;101126.22;;;3.86;100.00
32131;BME280;18639;50.716;7.086;2024-03-07T04:42:03;101128.63;;;3.92;100.00
32131;BME280;18639;50.716;7.086;2024-03-07T04:44:32;101119.25;;;3.93;100.00
32131;BME280;18639;50.716;7.086;2024-03-07T04:46:58;101122.41;;;4.02;100.00
32131;BME280;18639;50.716;7.086;2024-03-07T04:49:24;101122.28;;;4.07;100.00
32131;BME280;18639;50.716;7.086;2024-03-07T04:51:51;101110.56;;;4.00;100.00
32131;BME280;18639;50.716;7.086;2024-03-07T04:54:17;101115.50;;;4.06;100.00
32131;BME280;18639;50.716;7.086;2024-03-07T04:56:44;101126.22;;;4.20;100.00
32131;BME280;18639;50.716;7.086;2024-03-07T04:59:09;101125.38;;;4.19;100.00
32131;BME280;18639;50.716;7.086;2024-03-07T05:01:35;101065.94;;;3.77;100.00
32131;BME280;18639;50.716;7.086;2024-03-07T05:04:00;101105.91;;;4.14;100.00
32131;BME280;18639;50.716;7.086;2024-03-07T05:06:26;101127.75;;;4.27;100.00
32131;BME280;18639;50.716;7.086;2024-03-07T05:08:51;101131.09;;;4.29;100.00
32131;BME280;18639;50.716;7.086;2024-03-07T05:11:16;101115.91;;;4.23;100.00
32131;BME280;18639;50.716;7.086;2024-03-07T05:13:42;101119.16;;;4.28;100.00
32131;BME280;18639;50.716;7.086;2024-03-07T05:16:07;101135.09;;;4.39;100.00
32131;BME280;18639;50.716;7.086;2024-03-07T05:18:33;101107.94;;;4.34;100.00
32131;BME280;18639;50.716;7.086;2024-03-07T05:20:58;101117.19;;;4.39;100.00
32131;BME280;18639;50.716;7.086;2024-03-07T05:23:43;101117.25;;;4.38;100.00
32131;BME280;18639;50.716;7.086;2024-03-07T05:26:09;101120.50;;;4.43;100.00
32131;BME280;18639;50.716;7.086;2024-03-07T05:28:35;101116.94;;;4.48;100.00
32131;BME280;18639;50.716;7.086;2024-03-07T05:31:01;101120.28;;;4.50;100.00
32131;BME280;18639;50.716;7.086;2024-03-07T05:33:29;101117.72;;;4.50;100.00
32131;BME280;18639;50.716;7.086;2024-03-07T05:35:54;101116.00;;;4.51;100.00
32131;BME280;18639;50.716;7.086;2024-03-07T05:38:27;101126.94;;;4.57;100.00
32131;BME280;18639;50.716;7.086;2024-03-07T05:40:53;101120.97;;;4.57;100.00
32131;BME280;18639;50.716;7.086;2024-03-07T05:43:19;101113.59;;;4.46;100.00
32131;BME280;18639;50.716;7.086;2024-03-07T05:45:44;101121.81;;;4.57;100.00
32131;BME280;18639;50.716;7.086;2024-03-07T05:48:14;101125.03;;;4.64;100.00
32131;BME280;18639;50.716;7.086;2024-03-07T05:50:41;101119.28;;;4.56;100.00
32131;BME280;18639;50.716;7.086;2024-03-07T05:53:06;101120.69;;;4.66;100.00
32131;BME280;18639;50.716;7.086;2024-03-07T05:55:33;101130.78;;;4.72;100.00
32131;BME280;18639;50.716;7.086;2024-03-07T05:57:58;101118.94;;;4.68;100.00
32131;BME280;18639;50.716;7.086;2024-03-07T06:00:23;101125.50;;;4.78;100.00
32131;BME280;18639;50.716;7.086;2024-03-07T06:02:52;101102.66;;;4.71;100.00
32131;BME280;18639;50.716;7.086;2024-03-07T06:05:18;101116.91;;;4.81;100.00
32131;BME280;18639;50.716;7.086;2024-03-07T06:07:44;101120.94;;;4.88;100.00
32131;BME280;18639;50.716;7.086;2024-03-07T06:10:14;101098.31;;;4.74;100.00
32131;BME280;18639;50.716;7.086;2024-03-07T06:12:41;101118.47;;;4.85;100.00
32131;BME280;18639;50.716;7.086;2024-03-07T06:15:10;101128.66;;;4.86;100.00
32131;BME280;18639;50.716;7.086;2024-03-07T06:17:36;101105.91;;;4.76;100.00
32131;BME280;18639;50.716;7.086;2024-03-07T06:20:01;101118.56;;;4.82;100.00
32131;BME280;18639;50.716;7.086;2024-03-07T06:22:26;101123.50;;;4.88;100.00
32131;BME280;18639;50.716;7.086;2024-03-07T06:24:52;101101.72;;;4.75;100.00
32131;BME280;18639;50.716;7.086;2024-03-07T06:27:17;101104.16;;;4.78;100.00
32131;BME280;18639;50.716;7.086;2024-03-07T06:29:51;101119.31;;;4.85;100.00
32131;BME280;18639;50.716;7.086;2024-03-07T06:32:18;101118.50;;;4.83;100.00
32131;BME280;18639;50.716;7.086;2024-03-07T06:34:44;101105.84;;;4.79;100.00
32131;BME280;18639;50.716;7.086;2024-03-07T06:37:09;101112.47;;;4.86;100.00
32131;BME280;18639;50.716;7.086;2024-03-07T06:39:34;101118.22;;;4.94;100.00
32131;BME280;18639;50.716;7.086;2024-03-07T06:42:00;101107.25;;;4.89;100.00
32131;BME280;18639;50.716;7.086;2024-03-07T06:44:25;101103.81;;;4.90;100.00
32131;BME280;18639;50.716;7.086;2024-03-07T06:46:52;101106.03;;;5.02;100.00
32131;BME280;18639;50.716;7.086;2024-03-07T06:49:17;101134.44;;;5.22;100.00
32131;BME280;18639;50.716;7.086;2024-03-07T06:51:43;101120.66;;;5.26;100.00
32131;BME280;18639;50.716;7.086;2024-03-07T06:54:09;101124.72;;;5.33;100.00
32131;BME280;18639;50.716;7.086;2024-03-07T06:56:34;101129.75;;;5.36;100.00
32131;BME280;18639;50.716;7.086;2024-03-07T06:58:59;101107.75;;;5.29;100.00
32131;BME280;18639;50.716;7.086;2024-03-07T07:01:29;101116.06;;;5.37;100.00
32131;BME280;18639;50.716;7.086;2024-03-07T07:03:54;101123.63;;;5.40;100.00
32131;BME280;18639;50.716;7.086;2024-03-07T07:06:22;101113.38;;;5.40;100.00
32131;BME280;18639;50.716;7.086;2024-03-07T07:08:47;101120.84;;;5.48;100.00
32131;BME280;18639;50.716;7.086;2024-03-07T07:11:12;101119.00;;;5.51;100.00
32131;BME280;18639;50.716;7.086;2024-03-07T07:13:38;101117.91;;;5.60;100.00
32131;BME280;18639;50.716;7.086;2024-03-07T07:16:04;101115.28;;;5.62;100.00
32131;BME280;18639;50.716;7.086;2024-03-07T07:18:29;101115.97;;;5.67;100.00
32131;BME280;18639;50.716;7.086;2024-03-07T07:20:55;101114.00;;;5.75;100.00
32131;BME280;18639;50.716;7.086;2024-03-07T07:23:21;101111.97;;;5.84;100.00
32131;BME280;18639;50.716;7.086;2024-03-07T07:25:46;101106.81;;;5.86;100.00
32131;BME280;18639;50.716;7.086;2024-03-07T07:28:12;101102.34;;;5.93;100.00
32131;BME280;18639;50.716;7.086;2024-03-07T07:30:37;101102.28;;;5.94;100.00
32131;BME280;18639;50.716;7.086;2024-03-07T07:33:03;101092.44;;;6.07;100.00
32131;BME280;18639;50.716;7.086;2024-03-07T07:35:28;101092.56;;;6.28;100.00
32131;BME280;18639;50.716;7.086;2024-03-07T07:37:54;101097.88;;;6.47;100.00
32131;BME280;18639;50.716;7.086;2024-03-07T07:40:23;101107.81;;;6.80;100.00
32131;BME280;18639;50.716;7.086;2024-03-07T07:42:50;101104.75;;;6.93;100.00
32131;BME280;18639;50.716;7.086;2024-03-07T07:45:17;101110.63;;;7.18;100.00
32131;BME280;18639;50.716;7.086;2024-03-07T07:47:43;101119.66;;;7.29;100.00
32131;BME280;18639;50.716;7.086;2024-03-07T07:50:13;101105.88;;;7.53;100.00
32131;BME280;18639;50.716;7.086;2024-03-07T07:52:46;101111.94;;;7.72;100.00
32131;BME280;18639;50.716;7.086;2024-03-07T07:55:34;101113.22;;;7.82;100.00
32131;BME280;18639;50.716;7.086;2024-03-07T07:57:59;101088.69;;;7.95;100.00
32131;BME280;18639;50.716;7.086;2024-03-07T08:00:26;101109.44;;;8.33;100.00
32131;BME280;18639;50.716;7.086;2024-03-07T08:03:01;101109.22;;;8.37;100.00
32131;BME280;18639;50.716;7.086;2024-03-07T08:05:32;101104.78;;;8.41;100.00
32131;BME280;18639;50.716;7.086;2024-03-07T08:08:03;101112.72;;;8.55;100.00
32131;BME280;18639;50.716;7.086;2024-03-07T08:10:30;101108.41;;;8.56;100.00
32131;BME280;18639;50.716;7.086;2024-03-07T08:12:59;101109.50;;;8.70;100.00
32131;BME280;18639;50.716;7.086;2024-03-07T08:15:25;101103.28;;;8.74;100.00
32131;BME280;18639;50.716;7.086;2024-03-07T08:17:51;101095.66;;;8.92;100.00
32131;BME280;18639;50.716;7.086;2024-03-07T08:20:19;101106.22;;;9.04;100.00
32131;BME280;18639;50.716;7.086;2024-03-07T08:22:46;101107.00;;;9.06;100.00
32131;BME280;18639;50.716;7.086;2024-03-07T08:25:13;101102.06;;;9.38;100.00
32131;BME280;18639;50.716;7.086;2024-03-07T08:27:41;101089.50;;;9.49;100.00
32131;BME280;18639;50.716;7.086;2024-03-07T08:30:07;101096.75;;;9.77;93.85
32131;BME280;18639;50.716;7.086;2024-03-07T08:32:34;101083.22;;;9.71;89.63
32131;BME280;18639;50.716;7.086;2024-03-07T08:35:03;101077.59;;;9.63;91.12
32131;BME280;18639;50.716;7.086;2024-03-07T08:37:32;101092.56;;;9.74;90.50
32131;BME280;18639;50.716;7.086;2024-03-07T08:39:59;101098.38;;;9.43;89.05
32131;BME280;18639;50.716;7.086;2024-03-07T08:42:24;101080.66;;;9.36;90.93
32131;BME280;18639;50.716;7.086;2024-03-07T08:44:49;101070.16;;;9.21;92.20
32131;BME280;18639;50.716;7.086;2024-03-07T08:47:15;101085.91;;;9.51;87.67
32131;BME280;18639;50.716;7.086;2024-03-07T08:49:40;101061.06;;;10.19;87.06
32131;BME280;18639;50.716;7.086;2024-03-07T08:52:05;101067.84;;;10.37;81.44
32131;BME280;18639;50.716;7.086;2024-03-07T08:54:31;101083.81;;;10.28;82.75
32131;BME280;18639;50.716;7.086;2024-03-07T08:56:58;101073.66;;;10.25;81.55
32131;BME280;18639;50.716;7.086;2024-03-07T08:59:24;101081.09;;;9.80;80.94
32131;BME280;18639;50.716;7.086;2024-03-07T09:01:49;101081.16;;;9.61;81.05
32131;BME280;18639;50.716;7.086;2024-03-07T09:04:15;101071.13;;;9.19;80.71
32131;BME280;18639;50.716;7.086;2024-03-07T09:06:43;101088.09;;;9.06;80.82
32131;BME280;18639;50.716;7.086;2024-03-07T09:09:08;101087.97;;;8.90;81.86
32131;BME280;18639;50.716;7.086;2024-03-07T09:11:34;101082.25;;;8.65;82.42
32131;BME280;18639;50.716;7.086;2024-03-07T09:14:01;101062.41;;;8.48;85.60
32131;BME280;18639;50.716;7.086;2024-03-07T09:16:26;101066.16;;;8.21;85.58
32131;BME280;18639;50.716;7.086;2024-03-07T09:18:52;101086.41;;;8.28;86.91
32131;BME280;18639;50.716;7.086;2024-03-07T09:21:17;101086.34;;;8.10;87.27
32131;BME280;18639;50.716;7.086;2024-03-07T09:23:42;101093.81;;;8.94;85.81
32131;BME280;18639;50.716;7.086;2024-03-07T09:26:07;101060.72;;;10.08;84.90
32131;BME280;18639;50.716;7.086;2024-03-07T09:28:33;101070.84;;;11.10;75.27
32131;BME280;18639;50.716;7.086;2024-03-07T09:30:58;101091.06;;;11.49;66.94
32131;BME280;18639;50.716;7.086;2024-03-07T09:33:23;101078.53;;;11.57;66.32
32131;BME280;18639;50.716;7.086;2024-03-07T09:35:49;101070.38;;;11.33;65.23
32131;BME280;18639;50.716;7.086;2024-03-07T09:38:14;101074.03;;;11.45;65.31
32131;BME280;18639;50.716;7.086;2024-03-07T09:40:40;101077.19;;;11.50;67.84
32131;BME280;18639;50.716;7.086;2024-03-07T09:43:06;101077.16;;;11.65;67.94
32131;BME280;18639;50.716;7.086;2024-03-07T09:45:35;101037.06;;;11.72;66.48
32131;BME280;18639;50.716;7.086;2024-03-07T09:48:01;101075.91;;;12.45;61.64
32131;BME280;18639;50.716;7.086;2024-03-07T09:50:29;101057.97;;;12.42;61.23
32131;BME280;18639;50.716;7.086;2024-03-07T09:52:56;101072.88;;;12.52;59.29
32131;BME280;18639;50.716;7.086;2024-03-07T09:55:22;101057.69;;;12.46;58.74
32131;BME280;18639;50.716;7.086;2024-03-07T09:57:49;101059.81;;;12.26;59.96
32131;BME280;18639;50.716;7.086;2024-03-07T10:00:19;101069.63;;;12.06;58.10
32131;BME280;18639;50.716;7.086;2024-03-07T10:02:54;101074.25;;;12.01;59.56
32131;BME280;18639;50.716;7.086;2024-03-07T10:05:22;101060.31;;;11.88;59.80
32131;BME280;18639;50.716;7.086;2024-03-07T10:07:48;101029.72;;;11.80;61.25
32131;BME280;18639;50.716;7.086;2024-03-07T10:10:14;101059.16;;;12.64;60.20
32131;BME280;18639;50.716;7.086;2024-03-07T10:12:39;101053.88;;;13.21;60.55
32131;BME280;18639;50.716;7.086;2024-03-07T10:15:05;101033.53;;;13.80;58.81
32131;BME280;18639;50.716;7.086;2024-03-07T10:17:31;101031.06;;;14.04;54.42
32131;BME280;18639;50.716;7.086;2024-03-07T10:19:58;101007.25;;;14.10;54.34
32131;BME280;18639;50.716;7.086;2024-03-07T10:22:26;101023.88;;;14.07;51.43
32131;BME280;18639;50.716;7.086;2024-03-07T10:24:52;101012.56;;;14.70;50.74
32131;BME280;18639;50.716;7.086;2024-03-07T10:27:22;101001.13;;;13.85;50.45
32131;BME280;18639;50.716;7.086;2024-03-07T10:29:48;101013.47;;;13.95;51.30
32131;BME280;18639;50.716;7.086;2024-03-07T10:32:21;101020.66;;;13.26;51.90
32131;BME280;18639;50.716;7.086;2024-03-07T10:34:47;101004.50;;;13.48;52.04
32131;BME280;18639;50.716;7.086;2024-03-07T10:37:14;100994.78;;;13.64;53.49
32131;BME280;18639;50.716;7.086;2024-03-07T10:39:46;101008.28;;;13.95;56.17
32131;BME280;18639;50.716;7.086;2024-03-07T10:42:16;101018.59;;;13.31;53.02
32131;BME280;18639;50.716;7.086;2024-03-07T10:44:48;101018.00;;;13.40;54.26
32131;BME280;18639;50.716;7.086;2024-03-07T10:47:17;101016.16;;;12.75;54.66
32131;BME280;18639;50.716;7.086;2024-03-07T10:50:19;100984.94;;;12.35;58.46
32131;BME280;18639;50.716;7.086;2024-03-07T10:52:58;101018.06;;;12.58;58.43
32131;BME280;18639;50.716;7.086;2024-03-07T10:55:41;100993.72;;;12.18;59.00
32131;BME280;18639;50.716;7.086;2024-03-07T10:58:43;100986.91;;;11.89;60.39
32131;BME280;18639;50.716;7.086;2024-03-07T11:01:13;101008.72;;;11.85;60.16
32131;BME280;18639;50.716;7.086;2024-03-07T11:03:39;100993.22;;;11.69;60.67
32131;BME280;18639;50.716;7.086;2024-03-07T11:06:06;100986.00;;;10.85;60.48
32131;BME280;18639;50.716;7.086;2024-03-07T11:08:37;100990.53;;;11.11;65.28
32131;BME280;18639;50.716;7.086;2024-03-07T11:11:02;100975.16;;;10.94;65.09
32131;BME280;18639;50.716;7.086;2024-03-07T11:13:30;101001.84;;;11.10;65.00
32131;BME280;18639;50.716;7.086;2024-03-07T11:15:56;100982.34;;;10.89;67.04
32131;BME280;18639;50.716;7.086;2024-03-07T11:18:25;100978.09;;;10.57;66.45
32131;BME280;18639;50.716;7.086;2024-03-07T11:20:51;100984.69;;;10.62;69.35
32131;BME280;18639;50.716;7.086;2024-03-07T11:23:32;100985.84;;;10.57;70.82
32131;BME280;18639;50.716;7.086;2024-03-07T11:26:06;100992.06;;;10.37;69.76
32131;BME280;18639;50.716;7.086;2024-03-07T11:28:36;100972.94;;;10.41;74.11
32131;BME280;18639;50.716;7.086;2024-03-07T11:31:14;100983.59;;;10.66;76.66
32131;BME280;18639;50.716;7.086;2024-03-07T11:34:14;100975.19;;;10.63;73.54
32131;BME280;18639;50.716;7.086;2024-03-07T11:36:47;100970.81;;;10.63;72.78
32131;BME280;18639;50.716;7.086;2024-03-07T11:42:05;100961.31;;;10.64;70.87
32131;BME280;18639;50.716;7.086;2024-03-07T11:44:31;100945.34;;;10.41;71.84
32131;BME280;18639;50.716;7.086;2024-03-07T11:46:59;100970.34;;;10.57;73.88
32131;BME280;18639;50.716;7.086;2024-03-07T11:49:34;100957.31;;;10.42;73.50
32131;BME280;18639;50.716;7.086;2024-03-07T11:52:01;100941.34;;;10.51;74.50
32131;BME280;18639;50.716;7.086;2024-03-07T11:54:30;100947.44;;;10.50;72.95
32131;BME280;18639;50.716;7.086;2024-03-07T11:56:56;100937.16;;;10.65;75.47
32131;BME280;18639;50.716;7.086;2024-03-07T11:59:23;100947.25;;;10.53;74.46
32131;BME280;18639;50.716;7.086;2024-03-07T12:01:51;100947.69;;;10.62;75.37
32131;BME280;18639;50.716;7.086;2024-03-07T12:04:18;100934.50;;;10.50;75.36
32131;BME280;18639;50.716;7.086;2024-03-07T12:06:51;100941.81;;;10.42;73.64
32131;BME280;18639;50.716;7.086;2024-03-07T12:09:16;100932.66;;;10.52;77.36
32131;BME280;18639;50.716;7.086;2024-03-07T12:11:49;100906.16;;;10.33;75.72
32131;BME280;18639;50.716;7.086;2024-03-07T12:14:20;100917.16;;;10.68;77.45
32131;BME280;18639;50.716;7.086;2024-03-07T12:16:46;100912.59;;;10.58;72.64
32131;BME280;18639;50.716;7.086;2024-03-07T12:19:12;100918.16;;;10.66;73.76
32131;BME280;18639;50.716;7.086;2024-03-07T12:21:38;100896.53;;;10.82;74.03
32131;BME280;18639;50.716;7.086;2024-03-07T12:24:14;100885.13;;;10.71;74.06
32131;BME280;18639;50.716;7.086;2024-03-07T12:26:40;100885.53;;;10.79;75.97
32131;BME280;18639;50.716;7.086;2024-03-07T12:29:12;100893.31;;;11.23;74.73
32131;BME280;18639;50.716;7.086;2024-03-07T12:31:39;100875.44;;;11.04;72.21
32131;BME280;18639;50.716;7.086;2024-03-07T12:34:04;100870.19;;;11.06;72.45
32131;BME280;18639;50.716;7.086;2024-03-07T12:36:30;100887.91;;;11.12;69.99
32131;BME280;18639;50.716;7.086;2024-03-07T12:39:00;100872.88;;;11.04;71.27
32131;BME280;18639;50.716;7.086;2024-03-07T12:41:34;100876.00;;;11.09;70.53
32131;BME280;18639;50.716;7.086;2024-03-07T12:44:00;100872.94;;;11.32;74.96
32131;BME280;18639;50.716;7.086;2024-03-07T12:46:25;100872.81;;;11.34;72.51
32131;BME280;18639;50.716;7.086;2024-03-07T12:48:52;100823.25;;;11.12;74.13
32131;BME280;18639;50.716;7.086;2024-03-07T12:51:22;100848.13;;;11.14;69.18
32131;BME280;18639;50.716;7.086;2024-03-07T12:53:48;100862.03;;;10.97;70.63